createdAt,value
2018-01-15T00:00:02.394Z,20.30
2018-01-15T00:02:29.851Z,18.95
2018-01-15T00:04:57.301Z,19.17
2018-01-15T00:07:24.747Z,14.95
2018-01-15T00:09:52.208Z,16.37
2018-01-15T00:12:19.655Z,16.30
2018-01-15T00:14:47.118Z,19.67
2018-01-15T00:17:14.564Z,19.77
2018-01-15T00:19:42.015Z,20.35
2018-01-15T00:22:09.463Z,16.62
2018-01-15T00:24:37.694Z,15.68
2018-01-15T00:27:05.142Z,15.50
2018-01-15T00:29:32.593Z,15.73
2018-01-15T00:32:00.038Z,15.35
2018-01-15T00:34:27.501Z,18.50
2018-01-15T00:36:54.980Z,19.33
2018-01-15T00:39:23.195Z,20.67
2018-01-15T00:41:51.416Z,21.25
2018-01-15T00:44:18.868Z,19.55
2018-01-15T00:46:46.320Z,19.50
2018-01-15T00:49:13.769Z,19.60
2018-01-15T00:51:41.224Z,21.20
2018-01-15T00:54:08.669Z,19.95
2018-01-15T00:56:36.123Z,18.12
2018-01-15T00:59:03.569Z,18.90
2018-01-15T01:01:31.028Z,20.30
2018-01-15T01:03:58.474Z,18.37
2018-01-15T01:06:26.701Z,21.15
2018-01-15T01:08:54.153Z,22.05
2018-01-15T01:11:21.602Z,21.52
2018-01-15T01:13:49.052Z,18.48
2018-01-15T01:16:16.504Z,18.30
2018-01-15T01:18:43.962Z,20.15
2018-01-15T01:21:11.404Z,21.27
2018-01-15T01:23:38.855Z,19.30
2018-01-15T01:26:06.308Z,21.37
2018-01-15T01:28:34.537Z,20.17
2018-01-15T01:31:01.988Z,22.42
2018-01-15T01:33:29.431Z,18.52
2018-01-15T01:35:56.880Z,17.00
2018-01-15T01:38:24.336Z,19.98
2018-01-15T01:40:51.787Z,21.10
2018-01-15T01:43:19.232Z,20.55
2018-01-15T01:45:46.693Z,18.40
2018-01-15T01:48:14.131Z,19.20
2018-01-15T01:50:42.350Z,18.40
2018-01-15T01:53:09.797Z,18.77
2018-01-15T01:55:37.251Z,22.35
2018-01-15T01:58:04.707Z,20.85
2018-01-15T02:00:32.161Z,17.80
2018-01-15T02:02:59.617Z,19.60
2018-01-15T02:05:27.058Z,18.87
2018-01-15T02:07:54.505Z,20.70
2018-01-15T02:10:22.716Z,17.48
2018-01-15T02:12:50.181Z,17.62
2018-01-15T02:15:17.623Z,17.17
2018-01-15T02:17:45.244Z,17.48
2018-01-15T02:20:13.461Z,16.95
2018-01-15T02:22:40.903Z,16.77
2018-01-15T02:25:08.359Z,17.45
2018-01-15T02:27:35.810Z,15.88
2018-01-15T02:30:03.270Z,19.10
2018-01-15T02:32:30.709Z,18.80
2018-01-15T02:34:58.932Z,17.35
2018-01-15T02:37:26.379Z,15.50
2018-01-15T02:39:54.016Z,17.37
2018-01-15T02:42:21.465Z,17.30
2018-01-15T02:44:48.929Z,18.33
2018-01-15T02:47:16.383Z,19.10
2018-01-15T02:49:43.824Z,16.30
2018-01-15T02:52:12.047Z,17.37
2018-01-15T02:54:39.491Z,16.75
2018-01-15T02:57:06.955Z,14.75
2018-01-15T02:59:34.401Z,14.80
2018-01-15T03:02:01.853Z,13.70
2018-01-15T03:04:29.300Z,15.52
2018-01-15T03:06:56.747Z,13.60
2018-01-15T03:09:24.194Z,13.73
2018-01-15T03:11:52.645Z,12.82
2018-01-15T03:14:20.084Z,14.02
2018-01-15T03:16:47.535Z,13.75
2018-01-15T03:19:14.992Z,15.07
2018-01-15T03:21:42.447Z,13.90
2018-01-15T03:24:09.891Z,15.38
2018-01-15T03:26:37.339Z,14.20
2018-01-15T03:29:04.807Z,14.85
2018-01-15T03:31:32.253Z,13.90
2018-01-15T03:33:59.717Z,14.40
2018-01-15T03:36:27.169Z,14.85
2018-01-15T03:38:54.628Z,15.25
2018-01-15T03:41:22.075Z,14.23
2018-01-15T03:43:49.528Z,14.18
2018-01-15T03:46:16.988Z,13.75
2018-01-15T03:48:44.444Z,12.43
2018-01-15T03:51:11.896Z,16.73
2018-01-15T03:53:40.006Z,16.80
2018-01-15T03:56:07.447Z,18.17
2018-01-15T03:58:34.899Z,16.23
2018-01-15T04:01:02.353Z,16.80
2018-01-15T04:03:29.802Z,17.87
2018-01-15T04:05:57.261Z,15.15
2018-01-15T04:08:24.711Z,16.70
2018-01-15T04:10:52.348Z,18.75
2018-01-15T04:13:20.560Z,15.40
2018-01-15T04:15:48.013Z,19.58
2018-01-15T04:18:15.470Z,16.33
2018-01-15T04:20:42.929Z,15.48
2018-01-15T04:23:10.388Z,16.33
2018-01-15T04:25:37.836Z,16.73
2018-01-15T04:28:05.294Z,16.42
2018-01-15T04:30:32.753Z,15.57
2018-01-15T04:33:00.213Z,17.08
2018-01-15T04:35:27.659Z,16.30
2018-01-15T04:37:55.120Z,17.17
2018-01-15T04:40:22.570Z,17.77
2018-01-15T04:42:50.022Z,17.52
2018-01-15T04:45:17.480Z,17.50
2018-01-15T04:47:44.924Z,21.20
2018-01-15T04:50:12.382Z,17.70
2018-01-15T04:52:39.835Z,18.92
2018-01-15T04:55:07.296Z,15.82
2018-01-15T04:57:34.751Z,15.27
2018-01-15T05:00:02.212Z,18.15
2018-01-15T05:02:29.663Z,16.48
2018-01-15T05:04:58.069Z,17.58
2018-01-15T05:07:25.520Z,18.23
2018-01-15T05:09:52.972Z,18.30
2018-01-15T05:12:20.431Z,17.98
2018-01-15T05:14:47.880Z,17.40
2018-01-15T05:17:15.331Z,17.75
2018-01-15T05:19:42.794Z,20.05
2018-01-15T05:22:10.244Z,21.35
2018-01-15T05:24:37.696Z,19.35
2018-01-15T05:27:05.147Z,20.80
2018-01-15T05:29:33.360Z,19.15
2018-01-15T05:32:00.807Z,19.85
2018-01-15T05:34:28.268Z,20.95
2018-01-15T05:36:55.707Z,21.55
2018-01-15T05:39:23.162Z,19.37
2018-01-15T05:41:50.615Z,18.60
2018-01-15T05:44:18.068Z,17.20
2018-01-15T05:46:45.524Z,20.08
2018-01-15T05:49:12.979Z,20.90
2018-01-15T05:51:40.427Z,22.58
2018-01-15T05:54:08.651Z,19.75
2018-01-15T05:56:36.099Z,22.62
2018-01-15T05:59:03.547Z,23.90
2018-01-15T06:01:31.002Z,17.48
2018-01-15T06:03:58.462Z,21.35
2018-01-15T06:06:25.918Z,19.60
2018-01-15T06:08:53.368Z,21.95
2018-01-15T06:11:20.832Z,22.45
2018-01-15T06:13:48.280Z,20.70
2018-01-15T06:16:15.726Z,24.27
2018-01-15T06:18:43.179Z,25.30
2018-01-15T06:21:10.645Z,19.00
2018-01-15T06:23:38.098Z,18.02
2018-01-15T06:26:05.549Z,21.77
2018-01-15T06:28:33.700Z,23.42
2018-01-15T06:31:01.921Z,21.20
2018-01-15T06:33:29.383Z,26.10
2018-01-15T06:35:56.835Z,23.00
2018-01-15T06:38:24.293Z,20.65
2018-01-15T06:40:51.749Z,19.40
2018-01-15T06:43:19.210Z,25.45
2018-01-15T06:45:46.655Z,20.55
2018-01-15T06:48:14.113Z,27.13
2018-01-15T06:50:41.563Z,22.87
2018-01-15T06:53:09.034Z,24.75
2018-01-15T06:55:36.484Z,23.90
2018-01-15T06:58:03.928Z,27.27
2018-01-15T07:00:31.388Z,24.65
2018-01-15T07:02:58.844Z,25.23
2018-01-15T07:05:26.303Z,22.55
2018-01-15T07:07:53.755Z,22.90
2018-01-15T07:10:21.232Z,21.42
2018-01-15T07:12:48.852Z,23.20
2018-01-15T07:15:17.083Z,22.10
2018-01-15T07:17:44.539Z,27.25
2018-01-15T07:20:11.991Z,25.42
2018-01-15T07:22:39.453Z,24.95
2018-01-15T07:25:06.916Z,22.55
2018-01-15T07:27:34.368Z,22.98
2018-01-15T07:30:01.827Z,24.95
2018-01-15T07:32:29.280Z,27.45
2018-01-15T07:34:56.734Z,27.23
2018-01-15T07:37:24.180Z,25.08
2018-01-15T07:39:51.634Z,26.92
2018-01-15T07:42:19.087Z,24.75
2018-01-15T07:44:46.538Z,29.30
2018-01-15T07:47:13.991Z,22.90
2018-01-15T07:49:41.442Z,28.48
2018-01-15T07:52:08.904Z,27.90
2018-01-15T07:54:36.352Z,25.77
2018-01-15T07:57:03.806Z,23.38
2018-01-15T07:59:31.259Z,28.23
2018-01-15T08:01:58.724Z,24.60
2018-01-15T08:04:26.175Z,23.27
2018-01-15T08:06:53.628Z,22.17
2018-01-15T08:09:21.097Z,21.85
2018-01-15T08:11:48.548Z,25.98
2018-01-15T08:14:16.016Z,23.08
2018-01-15T08:16:43.463Z,25.85
2018-01-15T08:19:10.923Z,25.83
2018-01-15T08:21:38.376Z,26.87
2018-01-15T08:24:05.844Z,25.30
2018-01-15T08:26:33.328Z,24.77
2018-01-15T08:29:00.788Z,26.85
2018-01-15T08:31:28.235Z,26.73
2018-01-15T08:33:55.684Z,29.80
2018-01-15T08:36:23.907Z,27.40
2018-01-15T08:38:52.133Z,28.60
2018-01-15T08:41:19.591Z,26.73
2018-01-15T08:43:47.047Z,27.95
2018-01-15T08:46:14.504Z,27.87
2018-01-15T08:48:41.965Z,25.73
2018-01-15T08:51:09.416Z,26.65
2018-01-15T08:53:36.875Z,25.40
2018-01-15T08:56:05.234Z,29.65
2018-01-15T08:58:33.674Z,29.75
2018-01-15T09:01:01.301Z,27.15
2018-01-15T09:03:28.986Z,29.10
2018-01-15T09:05:56.528Z,28.35
2018-01-15T09:08:24.029Z,29.95
2018-01-15T09:10:52.341Z,29.35
2018-01-15T09:13:19.878Z,33.22
2018-01-15T09:15:47.410Z,29.15
2018-01-15T09:18:14.913Z,30.15
2018-01-15T09:20:43.868Z,35.45
2018-01-15T09:23:12.155Z,33.92
2018-01-15T09:25:40.513Z,30.92
2018-01-15T09:28:08.149Z,28.73
2018-01-15T09:30:35.775Z,31.67
2018-01-15T09:33:04.936Z,30.42
2018-01-15T09:35:33.205Z,27.83
2018-01-15T09:38:00.723Z,29.55
2018-01-15T09:40:28.256Z,29.50
2018-01-15T09:42:55.759Z,30.45
2018-01-15T09:45:23.314Z,28.52
2018-01-15T09:47:50.839Z,26.67
2018-01-15T09:50:18.341Z,33.60
2018-01-15T09:52:45.886Z,32.20
2018-01-15T09:55:13.378Z,30.40
2018-01-15T09:57:41.591Z,28.77
2018-01-15T10:00:09.044Z,28.33
2018-01-15T10:02:39.835Z,28.08
2018-01-15T10:05:07.368Z,29.87
2018-01-15T10:07:35.006Z,33.78
2018-01-15T10:10:02.591Z,28.65
2018-01-15T10:12:30.113Z,29.08
2018-01-15T10:14:58.715Z,34.58
2018-01-15T10:17:26.257Z,28.42
2018-01-15T10:19:53.719Z,28.10
2018-01-15T10:22:21.291Z,26.52
2018-01-15T10:24:48.915Z,28.42
2018-01-15T10:27:16.585Z,32.80
2018-01-15T10:29:45.643Z,34.13
2018-01-15T10:32:13.096Z,28.90
2018-01-15T10:40:09.890Z,27.67
2018-01-15T10:42:37.495Z,28.03
2018-01-15T10:45:05.005Z,31.60
2018-01-15T10:47:32.539Z,25.30
2018-01-15T10:50:00.097Z,31.07
2018-01-15T10:52:50.284Z,30.37
2018-01-15T10:55:17.778Z,30.30
2018-01-15T10:57:46.066Z,31.33
2018-01-15T11:00:13.533Z,33.53
2018-01-15T11:02:40.988Z,33.80
2018-01-15T11:05:08.440Z,29.63
2018-01-15T11:07:43.715Z,32.90
2018-01-15T11:10:11.230Z,31.83
2018-01-15T11:12:39.527Z,29.90
2018-01-15T11:21:02.624Z,32.00
2018-01-15T11:23:30.087Z,28.23
2018-01-15T11:25:57.600Z,38.70
2018-01-15T11:31:21.402Z,27.90
2018-01-15T11:33:49.632Z,38.43
2018-01-15T11:36:20.035Z,34.37
2018-01-15T11:38:56.402Z,34.25
2018-01-15T11:42:02.171Z,37.33
2018-01-15T11:44:30.472Z,33.20
2018-01-15T11:50:55.248Z,32.27
2018-01-15T11:53:22.782Z,39.17
2018-01-15T11:55:50.269Z,39.13
2018-01-15T11:58:17.751Z,41.17
2018-01-15T12:00:45.250Z,33.23
2018-01-15T12:03:13.516Z,37.20
2018-01-15T12:05:41.771Z,34.83
2018-01-15T12:08:09.305Z,34.10
2018-01-15T12:10:36.791Z,34.40
2018-01-15T12:13:04.325Z,31.90
2018-01-15T12:15:31.818Z,31.53
2018-01-15T12:18:08.732Z,34.10
2018-01-15T12:20:36.228Z,36.88
2018-01-15T12:23:03.747Z,30.83
2018-01-15T12:25:37.808Z,35.63
2018-01-15T12:28:05.449Z,31.87
2018-01-15T12:44:22.413Z,33.20
2018-01-15T12:46:49.902Z,31.08
2018-01-15T12:49:19.096Z,31.40
2018-01-15T12:53:16.373Z,38.27
2018-01-15T12:55:43.959Z,33.40
2018-01-15T12:58:12.465Z,32.00
2018-01-15T13:00:40.736Z,32.17
2018-01-15T13:03:08.950Z,32.20
2018-01-15T13:05:51.383Z,32.43
2018-01-15T13:08:30.692Z,37.07
2018-01-15T13:10:58.169Z,36.27
2018-01-15T13:13:25.621Z,29.90
2018-01-15T13:15:53.102Z,31.80
2018-01-15T13:18:20.564Z,29.53
2018-01-15T13:20:48.814Z,33.77
2018-01-15T13:23:16.276Z,35.83
2018-01-15T13:25:43.737Z,31.67
2018-01-15T13:28:11.228Z,33.43
2018-01-15T13:30:38.676Z,36.73
2018-01-15T13:33:06.911Z,34.10
2018-01-15T13:35:34.483Z,35.13
2018-01-15T13:38:02.003Z,32.30
2018-01-15T13:40:29.475Z,38.17
2018-01-15T13:42:56.952Z,34.77
2018-01-15T13:45:24.407Z,36.30
2018-01-15T13:47:51.863Z,36.17
2018-01-15T13:50:19.336Z,35.23
2018-01-15T13:52:46.827Z,29.40
2018-01-15T13:55:15.156Z,34.83
2018-01-15T13:57:42.649Z,37.93
2018-01-15T14:00:10.921Z,29.70
2018-01-15T14:02:39.225Z,35.57
2018-01-15T14:05:06.693Z,34.40
2018-01-15T14:07:34.161Z,40.60
2018-01-15T14:10:01.629Z,35.03
2018-01-15T14:12:29.086Z,33.10
2018-01-15T14:14:56.622Z,29.77
2018-01-15T14:17:24.137Z,34.37
2018-01-15T14:19:53.959Z,32.70
2018-01-15T14:22:22.321Z,32.00
2018-01-15T14:25:20.443Z,35.07
2018-01-15T14:27:48.085Z,37.63
2018-01-15T14:30:15.600Z,33.73
2018-01-15T14:32:43.149Z,32.10
2018-01-15T14:35:10.610Z,33.10
2018-01-15T14:37:38.090Z,33.10
2018-01-15T14:40:05.628Z,41.07
2018-01-15T14:42:33.004Z,31.87
2018-01-15T14:45:00.472Z,28.33
2018-01-15T14:47:28.720Z,36.53
2018-01-15T14:49:56.343Z,35.17
2018-01-15T14:52:23.856Z,40.37
2018-01-15T14:54:52.081Z,38.40
2018-01-15T14:57:19.657Z,34.17
2018-01-15T14:59:47.166Z,32.40
2018-01-15T15:02:15.454Z,34.40
2018-01-15T15:04:42.988Z,34.83
2018-01-15T15:07:11.326Z,28.07
2018-01-15T15:09:38.785Z,33.67
2018-01-15T15:12:06.260Z,28.63
2018-01-15T15:14:33.707Z,34.77
2018-01-15T15:17:02.457Z,31.03
2018-01-15T15:19:30.744Z,30.33
2018-01-15T15:21:58.329Z,30.43
2018-01-15T15:24:25.829Z,29.13
2018-01-15T15:26:54.102Z,29.40
2018-01-15T15:29:22.324Z,23.87
2018-01-15T15:31:50.005Z,30.93
2018-01-15T15:34:17.470Z,33.47
2018-01-15T15:36:44.937Z,28.10
2018-01-15T15:39:13.382Z,31.60
2018-01-15T15:41:40.994Z,30.97
2018-01-15T15:44:09.272Z,35.93
2018-01-15T15:46:36.706Z,31.40
2018-01-15T15:49:04.924Z,27.67
2018-01-15T15:51:32.359Z,26.47
2018-01-15T15:53:59.815Z,31.67
2018-01-15T15:56:27.265Z,27.00
2018-01-15T15:58:55.483Z,29.50
2018-01-15T16:01:22.930Z,30.70
2018-01-15T16:03:50.385Z,31.90
2018-01-15T16:06:17.840Z,28.87
2018-01-15T16:08:45.294Z,32.43
2018-01-15T16:11:12.768Z,30.87
2018-01-15T16:13:40.221Z,33.03
2018-01-15T16:16:07.674Z,40.77
2018-01-15T16:18:35.202Z,28.97
2018-01-15T16:21:02.718Z,33.43
2018-01-15T16:23:30.139Z,30.90
2018-01-15T16:25:57.576Z,28.43
2018-01-15T16:28:25.020Z,25.03
2018-01-15T16:30:53.252Z,37.93
2018-01-15T16:33:20.702Z,28.00
2018-01-15T16:35:48.158Z,25.43
2018-01-15T16:38:15.624Z,31.20
2018-01-15T16:40:43.072Z,28.80
2018-01-15T16:43:10.532Z,26.67
2018-01-15T16:45:38.009Z,27.90
2018-01-15T16:48:06.968Z,30.60
2018-01-15T16:50:34.423Z,32.67
2018-01-15T16:53:01.875Z,27.25
2018-01-15T16:55:29.321Z,30.37
2018-01-15T16:57:56.785Z,27.27
2018-01-15T17:00:24.235Z,28.43
2018-01-15T17:02:51.694Z,24.83
2018-01-15T18:21:18.654Z,17.35
2018-01-15T18:23:46.137Z,15.80
2018-01-15T18:26:13.706Z,22.83
2018-01-15T18:28:41.933Z,27.40
2018-01-15T18:31:09.393Z,28.90
2018-01-15T18:33:36.852Z,22.10
2018-01-15T18:36:04.313Z,17.33
2018-01-15T18:38:32.014Z,15.73
2018-01-15T18:40:59.480Z,19.17
2018-01-15T18:43:27.689Z,21.57
2018-01-15T18:45:55.155Z,21.53
2018-01-15T18:48:22.602Z,24.93
2018-01-15T18:50:50.043Z,17.37
2018-01-15T18:53:17.495Z,20.73
2018-01-15T18:55:45.703Z,20.77
2018-01-15T18:58:13.150Z,21.10
2018-01-15T19:00:40.594Z,23.80
2018-01-15T19:03:08.044Z,18.60
2018-01-15T19:05:35.487Z,18.80
2018-01-15T19:08:03.711Z,23.33
2018-01-15T19:10:31.156Z,18.37
2018-01-15T19:12:58.599Z,18.53
2018-01-15T19:15:26.066Z,18.80
2018-01-15T19:17:53.513Z,18.53
2018-01-15T19:20:20.964Z,20.03
2018-01-15T19:22:48.417Z,15.80
2018-01-15T19:25:15.868Z,19.63
2018-01-15T19:27:43.307Z,19.40
2018-01-15T19:30:11.576Z,13.70
2018-01-15T19:32:38.976Z,12.20
2018-01-15T19:35:09.929Z,12.50
2018-01-15T19:37:37.955Z,9.37
2018-01-15T19:40:06.209Z,15.50
2018-01-15T19:42:33.690Z,9.47
2018-01-15T19:45:07.645Z,11.83
2018-01-15T19:47:40.875Z,13.40
2018-01-15T19:50:14.110Z,12.43
2018-01-15T19:55:54.035Z,10.50
2018-01-15T19:58:27.230Z,7.60
2018-01-15T20:01:00.292Z,11.60
2018-01-15T20:03:33.570Z,11.13
2018-01-15T20:06:06.762Z,6.90
2018-01-15T20:11:40.156Z,11.10
2018-01-15T20:14:07.604Z,12.13
2018-01-15T20:16:35.065Z,12.53
2018-01-15T20:19:02.517Z,12.13
2018-01-15T20:21:29.954Z,11.27
2018-01-15T20:23:58.224Z,11.03
2018-01-15T20:26:25.697Z,12.90
2018-01-15T20:28:53.903Z,9.13
2018-01-15T20:31:21.340Z,6.80
2018-01-15T20:33:48.836Z,10.60
2018-01-15T20:36:16.301Z,7.87
2018-01-15T20:38:43.782Z,12.53
2018-01-15T20:41:12.041Z,12.95
2018-01-15T20:43:39.528Z,10.30
2018-01-15T20:46:07.803Z,11.40
2018-01-15T20:48:35.271Z,11.77
2018-01-15T20:51:02.761Z,7.53
2018-01-15T20:53:30.232Z,8.00
2018-01-15T20:55:57.769Z,9.00
2018-01-15T20:58:25.259Z,10.43
2018-01-15T21:00:52.768Z,10.20
2018-01-15T21:03:20.273Z,6.47
2018-01-15T21:05:47.761Z,7.05
2018-01-15T21:08:16.063Z,8.60
2018-01-15T21:10:43.600Z,9.07
2018-01-15T21:13:12.013Z,11.23
2018-01-15T21:15:39.530Z,7.20
2018-01-15T21:18:07.005Z,7.77
2018-01-15T21:20:34.507Z,10.73
2018-01-15T21:23:01.975Z,8.73
2018-01-15T21:25:29.454Z,7.73
2018-01-15T21:27:57.702Z,9.60
2018-01-15T21:30:25.136Z,9.13
2018-01-15T21:32:52.625Z,6.50
2018-01-15T21:35:20.106Z,8.70
2018-01-15T21:37:48.367Z,8.68
2018-01-15T21:40:15.847Z,6.60
2018-01-15T21:42:44.075Z,7.67
2018-01-15T21:45:11.516Z,6.17
2018-01-15T21:47:39.001Z,9.23
2018-01-15T21:50:06.440Z,7.63
2018-01-15T21:52:33.895Z,8.43
2018-01-15T21:55:01.381Z,5.80
2018-01-15T21:57:28.868Z,7.07
2018-01-15T21:59:57.065Z,6.53
2018-01-15T22:02:24.508Z,7.40
2018-01-15T22:04:51.997Z,7.70
2018-01-15T22:07:19.431Z,6.17
2018-01-15T22:09:46.922Z,9.63
2018-01-15T22:12:14.402Z,6.10
2018-01-15T22:14:41.841Z,4.93
2018-01-15T22:17:09.342Z,7.23
2018-01-15T22:19:36.789Z,4.70
2018-01-15T22:22:05.000Z,4.97
2018-01-15T22:24:32.441Z,3.77
2018-01-15T22:26:59.934Z,3.80
2018-01-15T22:29:27.361Z,3.43
2018-01-15T22:31:57.796Z,2.33
2018-01-15T22:34:25.367Z,3.33
2018-01-15T22:36:53.706Z,2.90
2018-01-15T22:39:21.193Z,3.23
2018-01-15T22:41:48.748Z,2.30
2018-01-15T22:44:16.238Z,4.83
2018-01-15T22:46:43.738Z,3.93
2018-01-15T22:49:11.254Z,2.90
2018-01-15T22:51:38.738Z,2.67
2018-01-15T22:54:06.985Z,3.00
2018-01-15T22:56:34.570Z,2.37
2018-01-15T22:59:02.853Z,3.03
2018-01-15T23:01:31.340Z,1.83
2018-01-15T23:03:59.589Z,2.63
2018-01-15T23:06:27.246Z,2.60
2018-01-15T23:08:54.755Z,9.37
2018-01-15T23:11:22.295Z,1.77
2018-01-15T23:13:49.819Z,1.83
2018-01-15T23:16:17.326Z,2.50
2018-01-15T23:18:44.888Z,1.57
2018-01-15T23:21:12.534Z,2.40
2018-01-15T23:23:39.980Z,1.87
2018-01-15T23:26:08.185Z,2.37
2018-01-15T23:28:35.682Z,2.50
2018-01-15T23:31:03.137Z,1.90
2018-01-15T23:33:30.593Z,2.33
2018-01-15T23:35:58.037Z,2.40
2018-01-15T23:38:25.471Z,1.80
2018-01-15T23:40:52.922Z,2.23
2018-01-15T23:43:20.365Z,2.00
2018-01-15T23:45:47.811Z,2.07
2018-01-15T23:48:16.027Z,2.60
2018-01-15T23:50:43.474Z,1.23
2018-01-15T23:53:10.918Z,2.27
2018-01-15T23:55:38.358Z,1.80
2018-01-15T23:58:05.801Z,0.97
